sensor_id;sensor_type;location;lat;lon;timestamp;P1;durP1;ratioP1;P2;durP2;ratioP2
10617;SDS011;5356;43.526;26.534;2023-09-19T00:00:45;6.45;;;3.08;;
10617;SDS011;5356;43.526;26.534;2023-09-19T00:03:12;4.00;;;3.22;;
10617;SDS011;5356;43.526;26.534;2023-09-19T00:05:37;6.22;;;3.53;;
10617;SDS011;5356;43.526;26.534;2023-09-19T00:08:04;5.85;;;3.40;;
10617;SDS011;5356;43.526;26.534;2023-09-19T00:10:30;5.88;;;3.42;;
10617;SDS011;5356;43.526;26.534;2023-09-19T00:12:57;5.38;;;3.33;;
10617;SDS011;5356;43.526;26.534;2023-09-19T00:15:25;4.95;;;3.35;;
10617;SDS011;5356;43.526;26.534;2023-09-19T00:17:56;5.20;;;3.45;;
10617;SDS011;5356;43.526;26.534;2023-09-19T00:20:22;5.90;;;3.83;;
10617;SDS011;5356;43.526;26.534;2023-09-19T00:22:51;5.30;;;3.28;;
10617;SDS011;5356;43.526;26.534;2023-09-19T00:25:17;7.45;;;3.50;;
10617;SDS011;5356;43.526;26.534;2023-09-19T00:27:42;6.03;;;4.22;;
10617;SDS011;5356;43.526;26.534;2023-09-19T00:30:10;5.45;;;3.83;;
10617;SDS011;5356;43.526;26.534;2023-09-19T00:32:44;5.78;;;3.55;;
10617;SDS011;5356;43.526;26.534;2023-09-19T00:35:09;9.85;;;3.20;;
10617;SDS011;5356;43.526;26.534;2023-09-19T00:37:35;4.93;;;3.35;;
10617;SDS011;5356;43.526;26.534;2023-09-19T00:40:02;4.68;;;3.20;;
10617;SDS011;5356;43.526;26.534;2023-09-19T00:42:41;8.70;;;3.97;;
10617;SDS011;5356;43.526;26.534;2023-09-19T00:45:11;6.53;;;4.10;;
10617;SDS011;5356;43.526;26.534;2023-09-19T00:47:41;5.65;;;3.78;;
10617;SDS011;5356;43.526;26.534;2023-09-19T00:50:09;7.07;;;3.80;;
10617;SDS011;5356;43.526;26.534;2023-09-19T00:52:36;5.90;;;4.45;;
10617;SDS011;5356;43.526;26.534;2023-09-19T00:55:06;5.95;;;3.92;;
10617;SDS011;5356;43.526;26.534;2023-09-19T00:57:33;5.45;;;3.58;;
10617;SDS011;5356;43.526;26.534;2023-09-19T01:00:02;5.15;;;3.63;;
10617;SDS011;5356;43.526;26.534;2023-09-19T01:02:32;5.60;;;3.60;;
10617;SDS011;5356;43.526;26.534;2023-09-19T01:04:58;6.03;;;3.45;;
10617;SDS011;5356;43.526;26.534;2023-09-19T01:07:25;4.63;;;3.38;;
10617;SDS011;5356;43.526;26.534;2023-09-19T01:09:52;6.40;;;3.67;;
10617;SDS011;5356;43.526;26.534;2023-09-19T01:12:30;4.65;;;3.22;;
10617;SDS011;5356;43.526;26.534;2023-09-19T01:15:11;5.97;;;4.53;;
10617;SDS011;5356;43.526;26.534;2023-09-19T01:17:48;6.13;;;3.33;;
10617;SDS011;5356;43.526;26.534;2023-09-19T01:25:56;5.28;;;4.10;;
10617;SDS011;5356;43.526;26.534;2023-09-19T01:31:38;5.28;;;3.33;;
10617;SDS011;5356;43.526;26.534;2023-09-19T01:34:07;5.78;;;3.47;;
10617;SDS011;5356;43.526;26.534;2023-09-19T01:36:37;6.40;;;3.47;;
10617;SDS011;5356;43.526;26.534;2023-09-19T01:39:10;5.20;;;3.53;;
10617;SDS011;5356;43.526;26.534;2023-09-19T01:44:57;4.18;;;3.47;;
10617;SDS011;5356;43.526;26.534;2023-09-19T01:50:07;6.03;;;3.53;;
10617;SDS011;5356;43.526;26.534;2023-09-19T01:52:57;5.10;;;3.65;;
10617;SDS011;5356;43.526;26.534;2023-09-19T01:55:29;6.30;;;3.47;;
10617;SDS011;5356;43.526;26.534;2023-09-19T02:00:32;5.82;;;4.13;;
10617;SDS011;5356;43.526;26.534;2023-09-19T02:03:01;6.25;;;3.60;;
10617;SDS011;5356;43.526;26.534;2023-09-19T02:05:28;6.65;;;3.80;;
10617;SDS011;5356;43.526;26.534;2023-09-19T02:07:54;5.28;;;3.75;;
10617;SDS011;5356;43.526;26.534;2023-09-19T02:10:20;5.22;;;3.53;;
10617;SDS011;5356;43.526;26.534;2023-09-19T02:12:46;6.45;;;4.28;;
10617;SDS011;5356;43.526;26.534;2023-09-19T02:15:12;5.38;;;3.42;;
10617;SDS011;5356;43.526;26.534;2023-09-19T02:17:40;5.65;;;4.13;;
10617;SDS011;5356;43.526;26.534;2023-09-19T02:20:07;5.07;;;3.50;;
10617;SDS011;5356;43.526;26.534;2023-09-19T02:22:35;6.28;;;3.92;;
10617;SDS011;5356;43.526;26.534;2023-09-19T02:25:02;4.85;;;3.40;;
10617;SDS011;5356;43.526;26.534;2023-09-19T02:27:30;5.68;;;4.00;;
10617;SDS011;5356;43.526;26.534;2023-09-19T02:29:56;4.53;;;3.42;;
10617;SDS011;5356;43.526;26.534;2023-09-19T02:32:21;7.00;;;3.97;;
10617;SDS011;5356;43.526;26.534;2023-09-19T02:34:48;5.82;;;4.13;;
10617;SDS011;5356;43.526;26.534;2023-09-19T02:37:13;4.63;;;3.65;;
10617;SDS011;5356;43.526;26.534;2023-09-19T02:39:41;8.13;;;4.03;;
10617;SDS011;5356;43.526;26.534;2023-09-19T02:42:07;6.72;;;4.28;;
10617;SDS011;5356;43.526;26.534;2023-09-19T02:44:32;5.50;;;3.97;;
10617;SDS011;5356;43.526;26.534;2023-09-19T02:46:58;6.95;;;4.07;;
10617;SDS011;5356;43.526;26.534;2023-09-19T02:49:24;5.55;;;3.70;;
10617;SDS011;5356;43.526;26.534;2023-09-19T02:51:50;7.28;;;3.75;;
10617;SDS011;5356;43.526;26.534;2023-09-19T02:54:15;7.15;;;4.35;;
10617;SDS011;5356;43.526;26.534;2023-09-19T02:56:42;6.90;;;4.05;;
10617;SDS011;5356;43.526;26.534;2023-09-19T02:59:08;5.93;;;4.00;;
10617;SDS011;5356;43.526;26.534;2023-09-19T03:01:35;6.25;;;4.30;;
10617;SDS011;5356;43.526;26.534;2023-09-19T03:04:02;5.53;;;4.03;;
10617;SDS011;5356;43.526;26.534;2023-09-19T03:06:27;6.10;;;3.72;;
10617;SDS011;5356;43.526;26.534;2023-09-19T03:08:56;5.35;;;3.60;;
10617;SDS011;5356;43.526;26.534;2023-09-19T03:11:21;6.57;;;3.70;;
10617;SDS011;5356;43.526;26.534;2023-09-19T03:13:54;5.47;;;3.90;;
10617;SDS011;5356;43.526;26.534;2023-09-19T03:16:19;7.88;;;3.58;;
10617;SDS011;5356;43.526;26.534;2023-09-19T03:18:48;5.75;;;3.65;;
10617;SDS011;5356;43.526;26.534;2023-09-19T03:21:14;8.57;;;4.20;;
10617;SDS011;5356;43.526;26.534;2023-09-19T03:23:44;5.25;;;3.45;;
10617;SDS011;5356;43.526;26.534;2023-09-19T03:26:10;8.82;;;3.80;;
10617;SDS011;5356;43.526;26.534;2023-09-19T03:28:37;9.48;;;4.15;;
10617;SDS011;5356;43.526;26.534;2023-09-19T03:31:04;6.70;;;4.00;;
10617;SDS011;5356;43.526;26.534;2023-09-19T03:33:30;5.82;;;4.05;;
10617;SDS011;5356;43.526;26.534;2023-09-19T03:35:59;6.25;;;4.32;;
10617;SDS011;5356;43.526;26.534;2023-09-19T03:38:31;5.43;;;3.75;;
10617;SDS011;5356;43.526;26.534;2023-09-19T03:40:58;7.88;;;3.95;;
10617;SDS011;5356;43.526;26.534;2023-09-19T03:43:24;7.10;;;4.68;;
10617;SDS011;5356;43.526;26.534;2023-09-19T03:45:49;6.70;;;3.58;;
10617;SDS011;5356;43.526;26.534;2023-09-19T03:48:16;6.78;;;4.18;;
10617;SDS011;5356;43.526;26.534;2023-09-19T03:50:42;5.90;;;4.22;;
10617;SDS011;5356;43.526;26.534;2023-09-19T03:53:09;6.60;;;4.00;;
10617;SDS011;5356;43.526;26.534;2023-09-19T03:55:34;7.30;;;4.80;;
10617;SDS011;5356;43.526;26.534;2023-09-19T03:58:04;7.57;;;4.60;;
10617;SDS011;5356;43.526;26.534;2023-09-19T04:00:29;8.88;;;4.93;;
10617;SDS011;5356;43.526;26.534;2023-09-19T04:02:55;6.40;;;4.05;;
10617;SDS011;5356;43.526;26.534;2023-09-19T04:05:22;5.53;;;4.10;;
10617;SDS011;5356;43.526;26.534;2023-09-19T04:07:47;8.02;;;4.70;;
10617;SDS011;5356;43.526;26.534;2023-09-19T04:10:13;8.40;;;4.18;;
10617;SDS011;5356;43.526;26.534;2023-09-19T04:12:39;7.65;;;4.18;;
10617;SDS011;5356;43.526;26.534;2023-09-19T04:15:05;7.18;;;3.92;;
10617;SDS011;5356;43.526;26.534;2023-09-19T04:17:32;6.95;;;4.82;;
10617;SDS011;5356;43.526;26.534;2023-09-19T04:19:58;8.77;;;4.78;;
10617;SDS011;5356;43.526;26.534;2023-09-19T04:22:24;8.48;;;4.60;;
10617;SDS011;5356;43.526;26.534;2023-09-19T04:24:49;13.35;;;6.28;;
10617;SDS011;5356;43.526;26.534;2023-09-19T04:27:15;7.10;;;4.20;;
10617;SDS011;5356;43.526;26.534;2023-09-19T04:29:41;5.30;;;3.90;;
10617;SDS011;5356;43.526;26.534;2023-09-19T04:32:09;7.35;;;4.63;;
10617;SDS011;5356;43.526;26.534;2023-09-19T04:34:35;7.63;;;4.70;;
10617;SDS011;5356;43.526;26.534;2023-09-19T04:37:01;8.52;;;4.57;;
10617;SDS011;5356;43.526;26.534;2023-09-19T04:39:27;9.55;;;4.43;;
10617;SDS011;5356;43.526;26.534;2023-09-19T04:41:53;9.70;;;4.63;;
10617;SDS011;5356;43.526;26.534;2023-09-19T04:44:19;8.52;;;4.30;;
10617;SDS011;5356;43.526;26.534;2023-09-19T04:46:46;7.22;;;4.68;;
10617;SDS011;5356;43.526;26.534;2023-09-19T04:49:11;7.55;;;4.88;;
10617;SDS011;5356;43.526;26.534;2023-09-19T04:51:40;7.47;;;5.00;;
10617;SDS011;5356;43.526;26.534;2023-09-19T04:54:05;9.65;;;4.90;;
10617;SDS011;5356;43.526;26.534;2023-09-19T04:56:31;7.32;;;4.80;;
10617;SDS011;5356;43.526;26.534;2023-09-19T04:58:57;11.00;;;5.45;;
10617;SDS011;5356;43.526;26.534;2023-09-19T05:01:24;9.65;;;5.10;;
10617;SDS011;5356;43.526;26.534;2023-09-19T05:03:50;7.45;;;4.30;;
10617;SDS011;5356;43.526;26.534;2023-09-19T05:06:18;7.72;;;5.13;;
10617;SDS011;5356;43.526;26.534;2023-09-19T05:08:46;9.15;;;5.10;;
10617;SDS011;5356;43.526;26.534;2023-09-19T05:11:14;9.70;;;6.22;;
10617;SDS011;5356;43.526;26.534;2023-09-19T05:13:40;8.70;;;5.60;;
10617;SDS011;5356;43.526;26.534;2023-09-19T05:16:05;8.48;;;4.63;;
10617;SDS011;5356;43.526;26.534;2023-09-19T05:18:30;8.48;;;4.95;;
10617;SDS011;5356;43.526;26.534;2023-09-19T05:20:56;7.97;;;5.20;;
10617;SDS011;5356;43.526;26.534;2023-09-19T05:23:22;9.65;;;4.80;;
10617;SDS011;5356;43.526;26.534;2023-09-19T05:25:47;8.82;;;4.82;;
10617;SDS011;5356;43.526;26.534;2023-09-19T05:28:13;9.65;;;4.90;;
10617;SDS011;5356;43.526;26.534;2023-09-19T05:30:40;7.25;;;4.85;;
10617;SDS011;5356;43.526;26.534;2023-09-19T05:33:08;8.20;;;4.97;;
10617;SDS011;5356;43.526;26.534;2023-09-19T05:35:34;6.47;;;4.50;;
10617;SDS011;5356;43.526;26.534;2023-09-19T05:38:04;6.88;;;4.65;;
10617;SDS011;5356;43.526;26.534;2023-09-19T05:40:33;6.68;;;4.68;;
10617;SDS011;5356;43.526;26.534;2023-09-19T05:42:59;9.15;;;5.13;;
10617;SDS011;5356;43.526;26.534;2023-09-19T05:45:25;7.18;;;4.50;;
10617;SDS011;5356;43.526;26.534;2023-09-19T05:47:52;7.47;;;5.15;;
10617;SDS011;5356;43.526;26.534;2023-09-19T05:50:21;10.18;;;5.03;;
10617;SDS011;5356;43.526;26.534;2023-09-19T05:52:53;8.48;;;5.18;;
10617;SDS011;5356;43.526;26.534;2023-09-19T05:55:19;9.88;;;4.68;;
10617;SDS011;5356;43.526;26.534;2023-09-19T05:57:52;9.70;;;4.50;;
10617;SDS011;5356;43.526;26.534;2023-09-19T06:00:19;8.77;;;5.85;;
10617;SDS011;5356;43.526;26.534;2023-09-19T06:05:17;8.98;;;5.45;;
10617;SDS011;5356;43.526;26.534;2023-09-19T06:07:43;8.13;;;5.43;;
10617;SDS011;5356;43.526;26.534;2023-09-19T06:10:09;9.32;;;5.20;;
10617;SDS011;5356;43.526;26.534;2023-09-19T06:12:41;9.20;;;5.40;;
10617;SDS011;5356;43.526;26.534;2023-09-19T06:15:10;7.72;;;4.90;;
10617;SDS011;5356;43.526;26.534;2023-09-19T06:17:47;7.10;;;4.57;;
10617;SDS011;5356;43.526;26.534;2023-09-19T06:20:14;7.35;;;4.75;;
10617;SDS011;5356;43.526;26.534;2023-09-19T06:22:44;7.40;;;4.75;;
10617;SDS011;5356;43.526;26.534;2023-09-19T06:25:11;8.20;;;4.55;;
10617;SDS011;5356;43.526;26.534;2023-09-19T06:27:38;5.32;;;3.83;;
10617;SDS011;5356;43.526;26.534;2023-09-19T06:30:07;5.68;;;4.00;;
10617;SDS011;5356;43.526;26.534;2023-09-19T06:32:34;5.50;;;4.15;;
10617;SDS011;5356;43.526;26.534;2023-09-19T06:34:59;16.70;;;6.97;;
10617;SDS011;5356;43.526;26.534;2023-09-19T06:37:27;6.75;;;4.28;;
10617;SDS011;5356;43.526;26.534;2023-09-19T06:39:53;5.45;;;3.95;;
10617;SDS011;5356;43.526;26.534;2023-09-19T06:42:18;5.25;;;3.80;;
10617;SDS011;5356;43.526;26.534;2023-09-19T06:44:44;6.63;;;4.30;;
10617;SDS011;5356;43.526;26.534;2023-09-19T06:47:10;6.90;;;4.28;;
10617;SDS011;5356;43.526;26.534;2023-09-19T06:49:35;5.55;;;4.05;;
10617;SDS011;5356;43.526;26.534;2023-09-19T06:52:01;7.68;;;4.18;;
10617;SDS011;5356;43.526;26.534;2023-09-19T06:54:27;8.18;;;4.45;;
10617;SDS011;5356;43.526;26.534;2023-09-19T06:56:56;6.35;;;3.55;;
10617;SDS011;5356;43.526;26.534;2023-09-19T06:59:23;4.75;;;4.00;;
10617;SDS011;5356;43.526;26.534;2023-09-19T07:01:49;7.43;;;4.03;;
10617;SDS011;5356;43.526;26.534;2023-09-19T07:04:15;7.20;;;3.90;;
10617;SDS011;5356;43.526;26.534;2023-09-19T07:06:41;5.47;;;4.05;;
10617;SDS011;5356;43.526;26.534;2023-09-19T07:09:07;6.38;;;4.00;;
10617;SDS011;5356;43.526;26.534;2023-09-19T07:11:33;5.72;;;4.10;;
10617;SDS011;5356;43.526;26.534;2023-09-19T07:13:59;7.03;;;4.18;;
10617;SDS011;5356;43.526;26.534;2023-09-19T07:16:24;5.85;;;3.80;;
10617;SDS011;5356;43.526;26.534;2023-09-19T07:18:54;5.20;;;3.33;;
10617;SDS011;5356;43.526;26.534;2023-09-19T07:21:21;6.38;;;3.47;;
10617;SDS011;5356;43.526;26.534;2023-09-19T07:23:47;5.55;;;3.47;;
10617;SDS011;5356;43.526;26.534;2023-09-19T07:26:14;5.47;;;3.40;;
10617;SDS011;5356;43.526;26.534;2023-09-19T07:28:40;5.43;;;3.65;;
10617;SDS011;5356;43.526;26.534;2023-09-19T07:31:06;6.03;;;4.07;;
10617;SDS011;5356;43.526;26.534;2023-09-19T07:33:35;4.93;;;3.03;;
10617;SDS011;5356;43.526;26.534;2023-09-19T07:36:01;5.35;;;3.33;;
10617;SDS011;5356;43.526;26.534;2023-09-19T07:38:26;4.63;;;3.33;;
10617;SDS011;5356;43.526;26.534;2023-09-19T07:40:52;5.20;;;3.67;;
10617;SDS011;5356;43.526;26.534;2023-09-19T07:43:17;8.88;;;3.88;;
10617;SDS011;5356;43.526;26.534;2023-09-19T07:45:43;3.60;;;3.08;;
10617;SDS011;5356;43.526;26.534;2023-09-19T07:48:09;5.35;;;3.17;;
10617;SDS011;5356;43.526;26.534;2023-09-19T07:50:39;5.15;;;3.63;;
10617;SDS011;5356;43.526;26.534;2023-09-19T07:53:05;5.97;;;3.22;;
10617;SDS011;5356;43.526;26.534;2023-09-19T07:55:31;3.90;;;2.80;;
10617;SDS011;5356;43.526;26.534;2023-09-19T07:58:00;3.30;;;2.80;;
10617;SDS011;5356;43.526;26.534;2023-09-19T08:00:25;4.30;;;3.15;;
10617;SDS011;5356;43.526;26.534;2023-09-19T08:02:51;4.63;;;3.33;;
10617;SDS011;5356;43.526;26.534;2023-09-19T08:05:19;5.18;;;3.42;;
10617;SDS011;5356;43.526;26.534;2023-09-19T08:07:46;4.75;;;3.00;;
10617;SDS011;5356;43.526;26.534;2023-09-19T08:10:14;4.30;;;2.90;;
10617;SDS011;5356;43.526;26.534;2023-09-19T08:12:44;3.15;;;2.85;;
10617;SDS011;5356;43.526;26.534;2023-09-19T08:15:15;5.38;;;3.17;;
10617;SDS011;5356;43.526;26.534;2023-09-19T08:17:41;7.18;;;3.80;;
10617;SDS011;5356;43.526;26.534;2023-09-19T08:20:08;3.65;;;3.22;;
10617;SDS011;5356;43.526;26.534;2023-09-19T08:22:47;7.22;;;3.28;;
10617;SDS011;5356;43.526;26.534;2023-09-19T08:25:22;3.33;;;2.97;;
10617;SDS011;5356;43.526;26.534;2023-09-19T08:27:50;4.18;;;3.35;;
10617;SDS011;5356;43.526;26.534;2023-09-19T08:30:16;3.60;;;3.00;;
10617;SDS011;5356;43.526;26.534;2023-09-19T08:32:43;4.68;;;3.35;;
10617;SDS011;5356;43.526;26.534;2023-09-19T08:35:11;5.10;;;3.40;;
10617;SDS011;5356;43.526;26.534;2023-09-19T08:37:37;4.10;;;2.90;;
10617;SDS011;5356;43.526;26.534;2023-09-19T08:40:03;6.43;;;3.70;;
10617;SDS011;5356;43.526;26.534;2023-09-19T08:42:28;5.22;;;3.20;;
10617;SDS011;5356;43.526;26.534;2023-09-19T08:44:55;5.07;;;3.45;;
10617;SDS011;5356;43.526;26.534;2023-09-19T08:47:33;4.28;;;3.22;;
10617;SDS011;5356;43.526;26.534;2023-09-19T08:50:07;5.07;;;2.80;;
10617;SDS011;5356;43.526;26.534;2023-09-19T08:52:41;3.58;;;2.78;;
10617;SDS011;5356;43.526;26.534;2023-09-19T08:55:09;4.30;;;2.92;;
10617;SDS011;5356;43.526;26.534;2023-09-19T08:57:37;6.03;;;3.53;;
10617;SDS011;5356;43.526;26.534;2023-09-19T09:00:06;3.25;;;2.88;;
10617;SDS011;5356;43.526;26.534;2023-09-19T09:02:37;4.13;;;3.20;;
10617;SDS011;5356;43.526;26.534;2023-09-19T09:05:08;4.68;;;3.08;;
10617;SDS011;5356;43.526;26.534;2023-09-19T09:07:35;4.10;;;3.00;;
10617;SDS011;5356;43.526;26.534;2023-09-19T09:10:03;4.50;;;3.08;;
10617;SDS011;5356;43.526;26.534;2023-09-19T09:12:29;4.25;;;2.65;;
10617;SDS011;5356;43.526;26.534;2023-09-19T09:14:54;4.10;;;2.90;;
10617;SDS011;5356;43.526;26.534;2023-09-19T09:17:25;4.53;;;3.38;;
10617;SDS011;5356;43.526;26.534;2023-09-19T09:19:54;4.40;;;3.33;;
10617;SDS011;5356;43.526;26.534;2023-09-19T09:22:20;4.53;;;3.28;;
10617;SDS011;5356;43.526;26.534;2023-09-19T09:24:55;3.78;;;2.72;;
10617;SDS011;5356;43.526;26.534;2023-09-19T09:27:28;2.92;;;2.55;;
10617;SDS011;5356;43.526;26.534;2023-09-19T09:29:54;4.22;;;3.00;;
10617;SDS011;5356;43.526;26.534;2023-09-19T09:32:21;3.75;;;3.15;;
10617;SDS011;5356;43.526;26.534;2023-09-19T09:34:50;4.50;;;2.80;;
10617;SDS011;5356;43.526;26.534;2023-09-19T09:37:16;3.65;;;2.72;;
10617;SDS011;5356;43.526;26.534;2023-09-19T09:39:55;4.53;;;2.45;;
10617;SDS011;5356;43.526;26.534;2023-09-19T09:42:32;3.53;;;2.60;;
10617;SDS011;5356;43.526;26.534;2023-09-19T09:47:48;4.90;;;2.67;;
10617;SDS011;5356;43.526;26.534;2023-09-19T09:50:32;3.97;;;2.88;;
10617;SDS011;5356;43.526;26.534;2023-09-19T09:53:22;2.55;;;2.35;;
10617;SDS011;5356;43.526;26.534;2023-09-19T09:56:07;5.10;;;2.90;;
10617;SDS011;5356;43.526;26.534;2023-09-19T09:58:35;3.05;;;2.30;;
10617;SDS011;5356;43.526;26.534;2023-09-19T10:01:02;2.75;;;2.40;;
10617;SDS011;5356;43.526;26.534;2023-09-19T10:03:34;3.30;;;2.17;;
10617;SDS011;5356;43.526;26.534;2023-09-19T10:06:08;3.67;;;2.55;;
10617;SDS011;5356;43.526;26.534;2023-09-19T10:09:01;3.85;;;2.30;;
10617;SDS011;5356;43.526;26.534;2023-09-19T10:11:41;3.05;;;2.40;;
10617;SDS011;5356;43.526;26.534;2023-09-19T10:14:09;3.45;;;2.65;;
10617;SDS011;5356;43.526;26.534;2023-09-19T10:16:38;6.20;;;3.13;;
10617;SDS011;5356;43.526;26.534;2023-09-19T10:19:06;4.25;;;2.67;;
10617;SDS011;5356;43.526;26.534;2023-09-19T10:21:34;2.83;;;2.63;;
10617;SDS011;5356;43.526;26.534;2023-09-19T10:24:01;4.05;;;2.90;;
10617;SDS011;5356;43.526;26.534;2023-09-19T10:26:30;3.83;;;2.47;;
10617;SDS011;5356;43.526;26.534;2023-09-19T10:28:56;4.07;;;2.35;;
10617;SDS011;5356;43.526;26.534;2023-09-19T10:31:29;3.30;;;2.72;;
10617;SDS011;5356;43.526;26.534;2023-09-19T10:33:59;3.95;;;2.60;;
10617;SDS011;5356;43.526;26.534;2023-09-19T10:36:29;3.58;;;2.72;;
10617;SDS011;5356;43.526;26.534;2023-09-19T10:38:59;4.22;;;2.42;;
10617;SDS011;5356;43.526;26.534;2023-09-19T10:41:29;5.53;;;2.08;;
10617;SDS011;5356;43.526;26.534;2023-09-19T10:43:59;5.13;;;2.47;;
10617;SDS011;5356;43.526;26.534;2023-09-19T10:46:28;6.25;;;2.63;;
10617;SDS011;5356;43.526;26.534;2023-09-19T10:48:53;4.03;;;2.25;;
10617;SDS011;5356;43.526;26.534;2023-09-19T10:51:25;4.63;;;2.50;;
10617;SDS011;5356;43.526;26.534;2023-09-19T10:54:06;2.53;;;2.17;;
10617;SDS011;5356;43.526;26.534;2023-09-19T10:56:38;4.22;;;2.67;;
10617;SDS011;5356;43.526;26.534;2023-09-19T10:59:17;4.93;;;2.65;;
10617;SDS011;5356;43.526;26.534;2023-09-19T11:14:54;2.85;;;2.13;;
10617;SDS011;5356;43.526;26.534;2023-09-19T11:30:44;3.60;;;2.78;;
10617;SDS011;5356;43.526;26.534;2023-09-19T11:33:32;4.50;;;2.58;;
10617;SDS011;5356;43.526;26.534;2023-09-19T11:46:29;3.95;;;2.92;;
10617;SDS011;5356;43.526;26.534;2023-09-19T11:49:04;3.60;;;2.35;;
10617;SDS011;5356;43.526;26.534;2023-09-19T11:51:51;3.75;;;2.10;;
10617;SDS011;5356;43.526;26.534;2023-09-19T11:54:17;4.95;;;2.42;;
10617;SDS011;5356;43.526;26.534;2023-09-19T11:56:49;6.03;;;3.35;;
10617;SDS011;5356;43.526;26.534;2023-09-19T11:59:28;4.53;;;2.80;;
10617;SDS011;5356;43.526;26.534;2023-09-19T12:02:00;2.97;;;2.60;;
10617;SDS011;5356;43.526;26.534;2023-09-19T12:04:38;4.22;;;2.40;;
10617;SDS011;5356;43.526;26.534;2023-09-19T12:09:36;3.22;;;2.58;;
10617;SDS011;5356;43.526;26.534;2023-09-19T12:12:05;3.35;;;2.50;;
10617;SDS011;5356;43.526;26.534;2023-09-19T12:14:30;3.55;;;2.70;;
10617;SDS011;5356;43.526;26.534;2023-09-19T12:16:56;3.28;;;2.63;;
10617;SDS011;5356;43.526;26.534;2023-09-19T12:19:23;3.40;;;2.70;;
10617;SDS011;5356;43.526;26.534;2023-09-19T12:21:54;2.97;;;2.47;;
10617;SDS011;5356;43.526;26.534;2023-09-19T12:24:34;3.25;;;2.80;;
10617;SDS011;5356;43.526;26.534;2023-09-19T12:27:04;4.82;;;2.65;;
10617;SDS011;5356;43.526;26.534;2023-09-19T12:29:30;3.40;;;2.63;;
10617;SDS011;5356;43.526;26.534;2023-09-19T12:31:57;4.53;;;3.38;;
10617;SDS011;5356;43.526;26.534;2023-09-19T12:34:28;3.60;;;2.30;;
10617;SDS011;5356;43.526;26.534;2023-09-19T12:37:18;4.80;;;2.80;;
10617;SDS011;5356;43.526;26.534;2023-09-19T12:40:03;2.45;;;2.25;;
10617;SDS011;5356;43.526;26.534;2023-09-19T12:42:40;3.92;;;2.60;;
10617;SDS011;5356;43.526;26.534;2023-09-19T12:45:07;3.30;;;2.45;;
10617;SDS011;5356;43.526;26.534;2023-09-19T12:47:34;2.65;;;2.13;;
10617;SDS011;5356;43.526;26.534;2023-09-19T12:50:12;2.95;;;2.28;;
10617;SDS011;5356;43.526;26.534;2023-09-19T12:52:51;4.70;;;2.70;;
10617;SDS011;5356;43.526;26.534;2023-09-19T12:55:21;5.88;;;2.90;;
10617;SDS011;5356;43.526;26.534;2023-09-19T13:00:35;4.15;;;2.10;;
10617;SDS011;5356;43.526;26.534;2023-09-19T13:05:51;4.90;;;2.40;;
10617;SDS011;5356;43.526;26.534;2023-09-19T13:08:37;3.70;;;2.42;;
10617;SDS011;5356;43.526;26.534;2023-09-19T13:11:14;3.15;;;1.92;;
10617;SDS011;5356;43.526;26.534;2023-09-19T13:19:37;2.72;;;1.90;;
10617;SDS011;5356;43.526;26.534;2023-09-19T13:22:05;3.05;;;2.65;;
10617;SDS011;5356;43.526;26.534;2023-09-19T13:24:51;2.75;;;2.42;;
10617;SDS011;5356;43.526;26.534;2023-09-19T13:27:16;3.33;;;2.35;;
10617;SDS011;5356;43.526;26.534;2023-09-19T13:29:42;3.90;;;2.58;;
10617;SDS011;5356;43.526;26.534;2023-09-19T13:32:07;2.97;;;2.58;;
10617;SDS011;5356;43.526;26.534;2023-09-19T13:34:36;4.13;;;2.15;;
10617;SDS011;5356;43.526;26.534;2023-09-19T13:37:02;3.33;;;2.42;;
10617;SDS011;5356;43.526;26.534;2023-09-19T13:39:29;4.40;;;2.40;;
10617;SDS011;5356;43.526;26.534;2023-09-19T13:41:55;3.70;;;2.42;;
10617;SDS011;5356;43.526;26.534;2023-09-19T13:44:20;4.22;;;2.10;;
10617;SDS011;5356;43.526;26.534;2023-09-19T13:46:46;3.30;;;1.95;;
10617;SDS011;5356;43.526;26.534;2023-09-19T13:49:11;4.05;;;2.42;;
10617;SDS011;5356;43.526;26.534;2023-09-19T13:51:37;2.42;;;2.15;;
10617;SDS011;5356;43.526;26.534;2023-09-19T13:54:02;4.95;;;2.42;;
10617;SDS011;5356;43.526;26.534;2023-09-19T13:56:28;2.78;;;2.22;;
10617;SDS011;5356;43.526;26.534;2023-09-19T13:58:55;2.65;;;2.42;;
10617;SDS011;5356;43.526;26.534;2023-09-19T14:01:20;3.30;;;2.42;;
10617;SDS011;5356;43.526;26.534;2023-09-19T14:03:46;4.00;;;2.25;;
10617;SDS011;5356;43.526;26.534;2023-09-19T14:06:14;2.70;;;2.40;;
10617;SDS011;5356;43.526;26.534;2023-09-19T14:08:40;6.15;;;2.30;;
10617;SDS011;5356;43.526;26.534;2023-09-19T14:11:08;3.20;;;2.28;;
10617;SDS011;5356;43.526;26.534;2023-09-19T14:13:34;2.78;;;2.33;;
10617;SDS011;5356;43.526;26.534;2023-09-19T14:16:03;3.53;;;2.65;;
10617;SDS011;5356;43.526;26.534;2023-09-19T14:18:30;2.60;;;2.40;;
10617;SDS011;5356;43.526;26.534;2023-09-19T14:20:56;4.80;;;2.20;;
10617;SDS011;5356;43.526;26.534;2023-09-19T14:23:22;4.18;;;2.72;;
10617;SDS011;5356;43.526;26.534;2023-09-19T14:25:48;4.78;;;2.33;;
10617;SDS011;5356;43.526;26.534;2023-09-19T14:28:14;3.78;;;2.25;;
10617;SDS011;5356;43.526;26.534;2023-09-19T14:30:39;2.28;;;2.03;;
10617;SDS011;5356;43.526;26.534;2023-09-19T14:33:05;3.58;;;2.20;;
10617;SDS011;5356;43.526;26.534;2023-09-19T14:35:31;4.25;;;2.20;;
10617;SDS011;5356;43.526;26.534;2023-09-19T14:37:56;4.65;;;2.63;;
10617;SDS011;5356;43.526;26.534;2023-09-19T14:40:22;2.95;;;2.65;;
10617;SDS011;5356;43.526;26.534;2023-09-19T14:42:47;3.50;;;2.78;;
10617;SDS011;5356;43.526;26.534;2023-09-19T14:45:13;3.55;;;2.42;;
10617;SDS011;5356;43.526;26.534;2023-09-19T14:47:43;2.50;;;2.17;;
10617;SDS011;5356;43.526;26.534;2023-09-19T14:50:09;2.63;;;2.38;;
10617;SDS011;5356;43.526;26.534;2023-09-19T14:52:35;3.95;;;2.28;;
10617;SDS011;5356;43.526;26.534;2023-09-19T14:55:01;3.17;;;2.20;;
10617;SDS011;5356;43.526;26.534;2023-09-19T14:57:27;4.00;;;2.33;;
10617;SDS011;5356;43.526;26.534;2023-09-19T14:59:53;5.65;;;2.63;;
10617;SDS011;5356;43.526;26.534;2023-09-19T15:02:19;2.30;;;2.03;;
10617;SDS011;5356;43.526;26.534;2023-09-19T15:04:45;3.53;;;2.58;;
10617;SDS011;5356;43.526;26.534;2023-09-19T15:07:13;5.15;;;2.70;;
10617;SDS011;5356;43.526;26.534;2023-09-19T15:09:40;4.53;;;2.25;;
10617;SDS011;5356;43.526;26.534;2023-09-19T15:12:06;3.92;;;2.38;;
10617;SDS011;5356;43.526;26.534;2023-09-19T15:14:32;2.65;;;2.30;;
10617;SDS011;5356;43.526;26.534;2023-09-19T15:16:57;4.50;;;2.10;;
10617;SDS011;5356;43.526;26.534;2023-09-19T15:19:23;2.25;;;1.88;;
10617;SDS011;5356;43.526;26.534;2023-09-19T15:21:48;4.72;;;2.80;;
10617;SDS011;5356;43.526;26.534;2023-09-19T15:24:14;5.53;;;2.35;;
10617;SDS011;5356;43.526;26.534;2023-09-19T15:26:39;2.42;;;2.22;;
10617;SDS011;5356;43.526;26.534;2023-09-19T15:29:08;5.22;;;2.45;;
10617;SDS011;5356;43.526;26.534;2023-09-19T15:31:34;3.65;;;2.47;;
10617;SDS011;5356;43.526;26.534;2023-09-19T15:34:03;5.82;;;2.60;;
10617;SDS011;5356;43.526;26.534;2023-09-19T15:36:30;9.32;;;3.80;;
10617;SDS011;5356;43.526;26.534;2023-09-19T15:38:57;8.88;;;2.65;;
10617;SDS011;5356;43.526;26.534;2023-09-19T15:41:24;3.83;;;2.53;;
10617;SDS011;5356;43.526;26.534;2023-09-19T15:43:50;4.07;;;2.80;;
10617;SDS011;5356;43.526;26.534;2023-09-19T15:46:15;7.15;;;2.97;;
10617;SDS011;5356;43.526;26.534;2023-09-19T15:48:41;5.00;;;2.35;;
10617;SDS011;5356;43.526;26.534;2023-09-19T15:51:07;5.63;;;2.90;;
10617;SDS011;5356;43.526;26.534;2023-09-19T15:56:12;5.95;;;2.53;;
10617;SDS011;5356;43.526;26.534;2023-09-19T15:58:39;5.05;;;2.70;;
10617;SDS011;5356;43.526;26.534;2023-09-19T16:01:05;3.67;;;3.00;;
10617;SDS011;5356;43.526;26.534;2023-09-19T16:03:34;6.68;;;4.57;;
10617;SDS011;5356;43.526;26.534;2023-09-19T16:06:01;5.05;;;3.15;;
10617;SDS011;5356;43.526;26.534;2023-09-19T16:08:26;7.93;;;3.42;;
10617;SDS011;5356;43.526;26.534;2023-09-19T16:10:52;5.70;;;3.47;;